Time;durP1;ratioP1;P1;durP2;ratioP2;P2;SDS_P1;SDS_P2;PMS_P1;PMS_P2;Temp;Humidity;BMP_temperature;BMP_pressure;BME280_temperature;BME280_humidity;BME280_pressure;Samples;Min_cycle;Max_cycle;Signal;HPM_P1;HPM_P2
2022/11/01 00:02:02;;;;;;;32.80;24.37;;;15.20;99.90;;;;;;5130878;27;20201;-68
2022/11/01 00:04:29;;;;;;;34.90;24.60;;;15.20;99.90;;;;;;5131008;27;20225;-68
2022/11/01 00:06:57;;;;;;;33.87;24.50;;;15.20;99.90;;;;;;5130437;27;20440;-68
2022/11/01 00:09:23;;;;;;;35.50;24.97;;;15.20;99.90;;;;;;5130993;27;20201;-67
2022/11/01 00:11:50;;;;;;;35.70;25.87;;;15.10;99.90;;;;;;5130419;27;20221;-68
2022/11/01 00:14:18;;;;;;;35.87;25.17;;;15.10;99.90;;;;;;5130375;27;20720;-67
2022/11/01 00:16:45;;;;;;;34.53;24.73;;;15.10;99.90;;;;;;5129411;27;20213;-68
2022/11/01 00:19:13;;;;;;;35.40;24.90;;;15.10;99.90;;;;;;5124075;27;20193;-67
2022/11/01 00:21:39;;;;;;;29.60;23.40;;;15.10;99.90;;;;;;5129887;27;20206;-67
2022/11/01 00:24:08;;;;;;;29.27;23.20;;;15.10;99.90;;;;;;5114742;27;20237;-68
2022/11/01 00:26:34;;;;;;;29.53;23.67;;;15.10;99.90;;;;;;5110066;28;20204;-67
2022/11/01 00:29:01;;;;;;;30.17;23.07;;;15.10;99.90;;;;;;5110251;28;20245;-67
2022/11/01 00:31:28;;;;;;;33.07;22.90;;;15.10;99.90;;;;;;5114553;27;20200;-67
2022/11/01 00:33:55;;;;;;;31.77;23.50;;;15.10;99.90;;;;;;5130686;27;20206;-67
2022/11/01 00:36:22;;;;;;;30.30;22.53;;;15.10;99.90;;;;;;5131155;27;20217;-67
2022/11/01 00:38:50;;;;;;;26.10;22.60;;;15.10;99.90;;;;;;5130327;27;20201;-67
2022/11/01 00:41:19;;;;;;;27.87;23.13;;;15.10;99.90;;;;;;5130129;27;20664;-67
2022/11/01 00:43:46;;;;;;;28.63;22.50;;;15.10;99.90;;;;;;5130428;27;20273;-67
2022/11/01 00:46:13;;;;;;;27.13;21.77;;;15.10;99.90;;;;;;5129993;27;20205;-67
2022/11/01 00:48:40;;;;;;;27.93;21.77;;;15.10;99.90;;;;;;5130260;27;20209;-67
2022/11/01 00:51:06;;;;;;;24.80;21.73;;;15.10;99.90;;;;;;5129444;27;20212;-67
2022/11/01 00:53:33;;;;;;;29.13;21.83;;;15.10;99.90;;;;;;5130204;27;20213;-67
2022/11/01 00:56:01;;;;;;;28.60;22.23;;;15.10;99.90;;;;;;5125951;27;20216;-67
2022/11/01 00:58:29;;;;;;;29.30;22.13;;;15.00;99.90;;;;;;5109619;28;20222;-66
2022/11/01 01:00:56;;;;;;;28.53;22.30;;;15.00;99.90;;;;;;5115413;27;20788;-67
2022/11/01 01:03:23;;;;;;;25.00;21.60;;;15.00;99.90;;;;;;5128547;27;20229;-67
2022/11/01 01:05:50;;;;;;;26.90;21.93;;;15.00;99.90;;;;;;5129479;27;20225;-68
2022/11/01 01:08:17;;;;;;;26.33;21.23;;;15.00;99.90;;;;;;5116242;27;20212;-68
2022/11/01 01:10:44;;;;;;;24.77;21.27;;;15.00;99.90;;;;;;5121968;27;20198;-68
2022/11/01 01:13:11;;;;;;;25.73;22.23;;;14.90;99.90;;;;;;5127300;27;20216;-68
2022/11/01 01:15:39;;;;;;;27.73;22.07;;;14.90;99.90;;;;;;5128438;27;20205;-68
2022/11/01 01:18:06;;;;;;;24.57;21.93;;;14.80;99.90;;;;;;5127606;27;20682;-68
2022/11/01 01:20:33;;;;;;;27.77;21.47;;;14.80;99.90;;;;;;5125689;27;20197;-68
2022/11/01 01:23:00;;;;;;;27.97;21.47;;;14.80;99.90;;;;;;5122452;27;20233;-68
2022/11/01 01:25:27;;;;;;;26.73;21.87;;;14.80;99.90;;;;;;5108881;27;20723;-68
2022/11/01 01:27:55;;;;;;;25.47;21.53;;;14.70;99.90;;;;;;5114944;27;20193;-68
2022/11/01 01:30:21;;;;;;;24.00;21.43;;;14.70;99.90;;;;;;5129632;27;20209;-68
2022/11/01 01:32:49;;;;;;;28.17;21.27;;;14.80;99.90;;;;;;5129434;27;20215;-68
2022/11/01 01:35:16;;;;;;;27.17;21.23;;;14.70;99.90;;;;;;5129161;27;20672;-68
2022/11/01 01:37:43;;;;;;;25.00;20.83;;;14.60;99.90;;;;;;5123927;27;20202;-68
2022/11/01 01:40:10;;;;;;;25.93;21.50;;;14.60;99.90;;;;;;5108801;28;20206;-68
2022/11/01 01:42:39;;;;;;;23.93;20.30;;;14.60;99.90;;;;;;5108754;28;20206;-69
2022/11/01 01:45:26;;;;;;;25.00;20.87;;;14.60;99.90;;;;;;5108355;28;20691;-68
2022/11/01 01:47:56;;;;;;;26.20;20.60;;;14.70;99.90;;;;;;5116700;27;20200;-68
2022/11/01 01:50:28;;;;;;;27.40;21.63;;;14.70;99.90;;;;;;5129502;27;20201;-69
2022/11/01 01:53:00;;;;;;;26.63;20.53;;;14.60;99.90;;;;;;5129246;27;20276;-69
2022/11/01 01:55:32;;;;;;;28.87;21.33;;;14.60;99.90;;;;;;5129066;27;20201;-69
2022/11/01 01:57:59;;;;;;;23.63;20.27;;;14.60;99.90;;;;;;5108781;28;20222;-69
2022/11/01 02:00:26;;;;;;;26.47;20.80;;;14.60;99.90;;;;;;5108596;28;20213;-69
2022/11/01 02:02:54;;;;;;;23.43;20.93;;;14.60;99.90;;;;;;5115824;27;20734;-69
2022/11/01 02:05:29;;;;;;;23.93;20.67;;;14.60;99.90;;;;;;5128696;27;20233;-69
2022/11/01 02:07:57;;;;;;;30.30;21.87;;;14.50;99.90;;;;;;5126662;27;20217;-69
2022/11/01 02:10:24;;;;;;;24.97;21.13;;;14.50;99.90;;;;;;5128745;27;20573;-69
2022/11/01 02:12:51;;;;;;;26.67;21.43;;;14.50;99.90;;;;;;5128057;27;20204;-69
2022/11/01 02:15:21;;;;;;;24.77;21.23;;;14.50;99.90;;;;;;5128357;27;20194;-69
2022/11/01 02:18:06;;;;;;;24.83;20.83;;;14.40;99.90;;;;;;5128668;27;20204;-69
2022/11/01 02:20:58;;;;;;;22.97;20.20;;;14.50;99.90;;;;;;5125332;27;20201;-69
2022/11/01 02:24:06;;;;;;;25.17;21.33;;;14.40;99.90;;;;;;5128116;27;20253;-68
2022/11/01 02:27:02;;;;;;;23.43;20.73;;;14.50;99.90;;;;;;5116649;27;20209;-69
2022/11/01 02:30:06;;;;;;;27.03;22.10;;;14.40;99.90;;;;;;5128277;27;20569;-69
2022/11/01 02:32:41;;;;;;;25.57;20.37;;;14.40;99.90;;;;;;5125757;27;20659;-68
2022/11/01 02:35:15;;;;;;;24.17;20.87;;;14.40;99.90;;;;;;5128519;27;20565;-68
2022/11/01 02:37:49;;;;;;;26.77;20.70;;;14.40;99.90;;;;;;5122921;27;20194;-68
2022/11/01 02:40:24;;;;;;;26.70;21.60;;;14.40;99.90;;;;;;5107598;28;20632;-68
2022/11/01 02:42:56;;;;;;;26.77;20.17;;;14.40;99.90;;;;;;5117701;28;20193;-68
2022/11/01 02:45:29;;;;;;;25.10;20.33;;;14.40;99.90;;;;;;5128238;27;20229;-68
2022/11/01 02:47:59;;;;;;;25.53;20.70;;;14.40;99.90;;;;;;5128318;27;20196;-68
2022/11/01 02:50:28;;;;;;;27.20;21.17;;;14.40;99.90;;;;;;5128024;27;20628;-68
2022/11/01 02:52:55;;;;;;;25.00;20.83;;;14.40;99.90;;;;;;5128315;27;20213;-68
2022/11/01 02:55:29;;;;;;;27.17;21.77;;;14.30;99.90;;;;;;5128462;27;20197;-68
2022/11/01 02:57:58;;;;;;;27.53;20.20;;;14.40;99.90;;;;;;5123863;28;20725;-68
2022/11/01 03:00:27;;;;;;;26.67;21.03;;;14.40;99.90;;;;;;5127903;27;20655;-67
2022/11/01 03:03:00;;;;;;;26.50;21.07;;;14.40;99.90;;;;;;5127696;27;21029;-67
2022/11/01 03:05:37;;;;;;;26.43;19.93;;;14.40;99.90;;;;;;5127851;27;20240;-67
2022/11/01 03:08:06;;;;;;;24.90;21.03;;;14.40;99.90;;;;;;5128342;27;20194;-67
2022/11/01 03:10:43;;;;;;;27.77;20.53;;;14.50;99.90;;;;;;5127949;27;20682;-67
2022/11/01 03:13:21;;;;;;;23.60;20.33;;;14.50;99.90;;;;;;5127942;27;20201;-67
2022/11/01 03:15:55;;;;;;;27.33;21.03;;;14.40;99.90;;;;;;5122513;27;20567;-68
2022/11/01 03:18:29;;;;;;;25.97;21.07;;;14.40;99.90;;;;;;5115313;27;20216;-68
2022/11/01 03:21:01;;;;;;;26.20;21.30;;;14.50;99.90;;;;;;5131798;27;20186;-68
2022/11/01 03:23:34;;;;;;;27.90;19.80;;;14.50;99.90;;;;;;5132094;27;20193;-67
2022/11/01 03:26:06;;;;;;;25.33;20.57;;;14.40;99.90;;;;;;5127177;27;20993;-67
2022/11/01 03:28:37;;;;;;;25.90;21.23;;;14.40;99.90;;;;;;5111528;28;20194;-67
2022/11/01 03:31:09;;;;;;;24.13;20.30;;;14.40;99.90;;;;;;5111302;28;20221;-67
2022/11/01 03:33:44;;;;;;;27.57;20.47;;;14.40;99.90;;;;;;5111577;27;20554;-67
2022/11/01 03:36:16;;;;;;;29.17;21.57;;;14.40;99.90;;;;;;5111170;28;20652;-68
2022/11/01 03:38:48;;;;;;;26.53;21.37;;;14.40;99.90;;;;;;5110728;28;20193;-67
2022/11/01 03:41:18;;;;;;;28.20;21.23;;;14.40;99.90;;;;;;5111284;28;20212;-67
2022/11/01 03:43:46;;;;;;;25.37;20.37;;;14.40;99.90;;;;;;5111038;27;20198;-67
2022/11/01 03:46:15;;;;;;;25.37;20.60;;;14.40;99.90;;;;;;5110907;28;20233;-67
2022/11/01 03:48:43;;;;;;;28.57;21.70;;;14.40;99.90;;;;;;5110901;28;20202;-67
2022/11/01 03:51:10;;;;;;;26.10;21.20;;;14.40;99.90;;;;;;5121318;27;20208;-67
2022/11/01 03:53:37;;;;;;;26.40;21.57;;;14.40;99.90;;;;;;5131204;27;20250;-68
2022/11/01 03:56:04;;;;;;;27.40;20.80;;;14.40;99.90;;;;;;5131341;27;20437;-68
2022/11/01 03:58:41;;;;;;;28.30;21.87;;;14.40;99.90;;;;;;5131107;27;20614;-68
2022/11/01 04:01:08;;;;;;;23.87;20.17;;;14.30;99.90;;;;;;5119157;27;20245;-68
2022/11/01 04:03:35;;;;;;;29.03;19.60;;;14.30;99.90;;;;;;5109987;28;20242;-68
2022/11/01 04:06:04;;;;;;;26.07;20.27;;;14.20;99.90;;;;;;5111064;28;20234;-68
2022/11/01 04:08:31;;;;;;;30.83;21.43;;;14.20;99.90;;;;;;5120748;27;20213;-68
2022/11/01 04:10:58;;;;;;;30.53;21.00;;;14.20;99.90;;;;;;5131093;27;20205;-68
2022/11/01 04:13:25;;;;;;;26.23;21.17;;;14.20;99.90;;;;;;5110545;27;20632;-68
2022/11/01 04:21:36;;;;;;;29.50;20.90;;;14.20;99.90;;;;;;5066872;28;20211;-68
2022/11/01 04:24:03;;;;;;;26.83;21.17;;;14.20;99.90;;;;;;5066735;28;20203;-69
2022/11/01 04:26:29;;;;;;;24.27;21.20;;;14.20;99.90;;;;;;5084748;27;20250;-68
2022/11/01 04:28:59;;;;;;;24.53;19.30;;;14.20;99.90;;;;;;5109809;28;20202;-68
2022/11/01 04:31:27;;;;;;;28.63;21.00;;;14.20;99.90;;;;;;5109790;27;20585;-69
2022/11/01 04:33:54;;;;;;;25.70;20.77;;;14.20;99.90;;;;;;5110608;27;20208;-68
2022/11/01 04:36:21;;;;;;;27.37;21.30;;;14.20;99.90;;;;;;5130648;27;20220;-69
2022/11/01 04:38:54;;;;;;;23.53;20.53;;;14.20;99.90;;;;;;5115745;27;20202;-69
2022/11/01 04:41:21;;;;;;;31.90;22.33;;;14.20;99.90;;;;;;5109692;28;20186;-69
2022/11/01 04:43:49;;;;;;;26.53;20.97;;;14.20;99.90;;;;;;5118430;27;20755;-69
2022/11/01 04:46:16;;;;;;;26.60;21.43;;;14.20;99.90;;;;;;5130096;27;20657;-69
2022/11/01 04:48:43;;;;;;;27.53;21.30;;;14.20;99.90;;;;;;5130099;27;20206;-69
2022/11/01 04:51:10;;;;;;;31.47;22.63;;;14.20;99.90;;;;;;5130134;27;20205;-69
2022/11/01 04:53:37;;;;;;;26.27;21.87;;;14.20;99.90;;;;;;5130104;27;20206;-69
2022/11/01 04:56:08;;;;;;;26.87;21.20;;;14.20;99.90;;;;;;5128581;27;20217;-69
2022/11/01 04:58:35;;;;;;;30.47;22.23;;;14.20;99.90;;;;;;5109427;28;20234;-69
2022/11/01 05:01:04;;;;;;;25.63;21.30;;;14.20;99.90;;;;;;5109142;28;20668;-69
2022/11/01 05:03:31;;;;;;;31.40;22.70;;;14.20;99.90;;;;;;5109162;28;20283;-69
2022/11/01 05:05:59;;;;;;;28.90;22.63;;;14.30;99.90;;;;;;5108991;28;20708;-69
2022/11/01 05:08:26;;;;;;;31.80;23.03;;;14.20;99.90;;;;;;5109240;28;20209;-69
2022/11/01 05:10:54;;;;;;;31.87;23.73;;;14.20;99.90;;;;;;5109277;28;20206;-69
2022/11/01 05:13:22;;;;;;;30.23;23.23;;;14.20;99.90;;;;;;5109274;28;20198;-69
2022/11/01 05:15:49;;;;;;;29.93;23.17;;;14.20;99.90;;;;;;5126026;27;20200;-69
2022/11/01 05:18:16;;;;;;;33.13;23.13;;;14.20;99.90;;;;;;5126819;27;20217;-69
2022/11/01 05:20:42;;;;;;;29.20;23.50;;;14.20;99.90;;;;;;5113615;27;20660;-69
2022/11/01 05:23:10;;;;;;;30.90;24.20;;;14.20;99.90;;;;;;5129315;27;20213;-69
2022/11/01 05:25:36;;;;;;;31.63;23.40;;;14.10;99.90;;;;;;5128967;27;20745;-69
2022/11/01 05:28:06;;;;;;;33.00;23.60;;;14.10;99.90;;;;;;5129044;27;20688;-69
2022/11/01 05:30:35;;;;;;;30.60;22.87;;;14.10;99.90;;;;;;5129172;27;20208;-69
2022/11/01 05:33:03;;;;;;;30.77;23.83;;;14.00;99.90;;;;;;5129648;27;20204;-69
2022/11/01 05:35:30;;;;;;;31.73;23.53;;;14.00;99.90;;;;;;5129436;27;20205;-68
2022/11/01 05:37:57;;;;;;;31.80;24.07;;;14.00;99.90;;;;;;5128754;27;20676;-69
2022/11/01 05:40:25;;;;;;;29.80;23.67;;;14.00;99.90;;;;;;5129524;27;20213;-69
2022/11/01 05:42:52;;;;;;;31.00;23.27;;;14.00;99.90;;;;;;5129172;27;20485;-69
2022/11/01 05:45:18;;;;;;;31.77;23.37;;;13.90;99.90;;;;;;5129119;27;20224;-69
2022/11/01 05:47:47;;;;;;;31.43;23.03;;;13.90;99.90;;;;;;5128902;27;20574;-68
2022/11/01 05:50:15;;;;;;;26.40;21.87;;;13.90;99.90;;;;;;5129202;27;20473;-68
2022/11/01 05:52:43;;;;;;;24.33;21.77;;;13.90;99.90;;;;;;5125320;27;20210;-68
2022/11/01 05:55:10;;;;;;;29.30;23.13;;;13.90;99.90;;;;;;5123015;27;20743;-68
2022/11/01 05:57:37;;;;;;;27.83;22.03;;;13.90;99.90;;;;;;5128675;27;20225;-69
2022/11/01 06:00:05;;;;;;;30.17;22.80;;;13.90;99.90;;;;;;5128947;27;20206;-68
2022/11/01 06:02:32;;;;;;;24.67;21.20;;;13.90;99.90;;;;;;5128636;27;20701;-68
2022/11/01 06:05:00;;;;;;;25.67;21.83;;;13.90;99.90;;;;;;5116498;27;20203;-68
2022/11/01 06:07:27;;;;;;;28.63;21.70;;;13.90;99.90;;;;;;5108229;28;20202;-69
2022/11/01 06:09:54;;;;;;;26.30;22.07;;;13.90;99.90;;;;;;5121762;27;20223;-68
2022/11/01 06:12:23;;;;;;;25.93;21.67;;;13.90;99.90;;;;;;5128450;27;20664;-68
2022/11/01 06:14:50;;;;;;;25.50;20.17;;;13.90;99.90;;;;;;5128520;27;20227;-68
2022/11/01 06:17:17;;;;;;;26.97;22.07;;;13.90;99.90;;;;;;5128691;27;20207;-68
2022/11/01 06:19:43;;;;;;;30.73;21.93;;;13.90;99.90;;;;;;5128531;27;20216;-68
2022/11/01 06:22:11;;;;;;;25.00;21.63;;;13.80;99.90;;;;;;5128363;27;20197;-68
2022/11/01 06:24:38;;;;;;;25.27;22.03;;;13.80;99.90;;;;;;5128365;27;20236;-68
2022/11/01 06:27:05;;;;;;;26.83;22.27;;;13.90;99.90;;;;;;5128229;27;20730;-69
2022/11/01 06:29:32;;;;;;;24.73;21.33;;;13.80;99.90;;;;;;5128256;27;20209;-68
2022/11/01 06:31:58;;;;;;;30.47;20.80;;;13.80;99.90;;;;;;5128650;27;20209;-68
2022/11/01 06:34:25;;;;;;;27.20;21.63;;;13.80;99.90;;;;;;5128344;27;20205;-68
2022/11/01 06:36:52;;;;;;;28.97;22.47;;;13.80;99.90;;;;;;5128184;27;20216;-68
2022/11/01 06:39:20;;;;;;;30.70;23.00;;;13.80;99.90;;;;;;5128420;27;20394;-68
2022/11/01 06:41:47;;;;;;;27.93;21.93;;;13.80;99.90;;;;;;5128352;27;20201;-69
2022/11/01 06:44:13;;;;;;;28.40;21.97;;;13.80;99.90;;;;;;5128213;27;20216;-69
2022/11/01 06:46:40;;;;;;;29.20;23.50;;;13.90;99.90;;;;;;5127938;27;20221;-69
2022/11/01 06:49:07;;;;;;;28.47;23.07;;;13.90;99.90;;;;;;5123573;27;20236;-69
2022/11/01 06:51:34;;;;;;;28.50;22.00;;;13.80;99.90;;;;;;5120057;27;20202;-68
2022/11/01 06:54:00;;;;;;;31.13;23.10;;;13.80;99.90;;;;;;5132682;27;20216;-69
2022/11/01 06:56:29;;;;;;;25.87;23.07;;;13.80;99.90;;;;;;5123024;27;20222;-68
2022/11/01 06:58:55;;;;;;;25.83;21.50;;;13.80;99.90;;;;;;5111532;28;20205;-68
2022/11/01 07:01:23;;;;;;;27.57;22.40;;;13.80;99.90;;;;;;5112311;27;20229;-68
2022/11/01 07:03:51;;;;;;;27.00;22.30;;;13.80;99.90;;;;;;5111532;28;20728;-68
2022/11/01 07:06:18;;;;;;;24.57;21.57;;;13.80;99.90;;;;;;5114947;27;20264;-69
2022/11/01 07:08:45;;;;;;;25.40;21.07;;;13.90;99.90;;;;;;5131904;27;20193;-69
2022/11/01 07:11:11;;;;;;;28.33;21.20;;;13.90;99.90;;;;;;5132530;27;20213;-69
2022/11/01 07:13:39;;;;;;;26.53;20.80;;;14.00;99.90;;;;;;5132476;27;20216;-68
2022/11/01 07:16:07;;;;;;;27.93;20.57;;;14.00;99.90;;;;;;5132313;27;20212;-68
2022/11/01 07:18:34;;;;;;;25.80;20.60;;;14.00;99.90;;;;;;5132282;27;20212;-68
2022/11/01 07:21:02;;;;;;;25.17;19.93;;;14.00;99.90;;;;;;5132124;27;20225;-68
2022/11/01 07:23:29;;;;;;;24.93;18.83;;;14.00;99.90;;;;;;5132378;27;20205;-68
2022/11/01 07:25:56;;;;;;;22.93;19.17;;;14.00;99.90;;;;;;5132541;27;20232;-68
2022/11/01 07:28:23;;;;;;;25.60;19.23;;;14.00;99.90;;;;;;5131818;27;20213;-68
2022/11/01 07:30:53;;;;;;;23.80;19.30;;;14.10;99.90;;;;;;5131228;27;20812;-68
2022/11/01 07:33:20;;;;;;;24.40;19.00;;;14.10;99.90;;;;;;5131825;27;20580;-68
2022/11/01 07:35:47;;;;;;;20.37;17.83;;;14.10;99.90;;;;;;5131653;27;20228;-68
2022/11/01 07:38:14;;;;;;;21.53;17.80;;;14.10;99.90;;;;;;5131423;27;20217;-68
2022/11/01 07:40:48;;;;;;;25.50;18.73;;;14.20;99.90;;;;;;5131648;27;20228;-68
2022/11/01 07:43:15;;;;;;;20.43;18.13;;;14.20;99.90;;;;;;5131445;27;20198;-68
2022/11/01 07:45:42;;;;;;;24.17;18.63;;;14.20;99.90;;;;;;5121822;27;20657;-68
2022/11/01 07:48:12;;;;;;;21.23;18.50;;;14.20;99.90;;;;;;5110593;28;20292;-68
2022/11/01 07:50:40;;;;;;;22.03;18.37;;;14.20;99.90;;;;;;5110742;28;20244;-68
2022/11/01 07:53:09;;;;;;;24.07;18.20;;;14.20;99.90;;;;;;5116178;27;20206;-68
2022/11/01 07:55:36;;;;;;;24.10;18.23;;;14.20;99.90;;;;;;5113877;27;20212;-68
2022/11/01 07:58:03;;;;;;;22.97;18.43;;;14.10;99.90;;;;;;5131066;27;20229;-68
2022/11/01 08:00:31;;;;;;;23.03;18.27;;;14.10;99.90;;;;;;5131160;27;20626;-68
2022/11/01 08:03:02;;;;;;;23.47;18.00;;;14.10;99.90;;;;;;5131047;27;20278;-68
2022/11/01 08:05:30;;;;;;;22.93;17.23;;;14.20;99.90;;;;;;5131526;27;20210;-69
2022/11/01 08:07:57;;;;;;;21.47;16.50;;;14.20;99.90;;;;;;5131603;27;20722;-68
2022/11/01 08:10:24;;;;;;;19.60;17.07;;;14.20;99.90;;;;;;5131584;27;20210;-68
2022/11/01 08:12:51;;;;;;;19.53;16.20;;;14.20;99.90;;;;;;5130739;27;20197;-68
2022/11/01 08:15:18;;;;;;;20.80;16.47;;;14.20;99.90;;;;;;5131144;27;20201;-69
2022/11/01 08:17:45;;;;;;;22.20;17.03;;;14.20;99.90;;;;;;5130663;27;20904;-68
2022/11/01 08:20:12;;;;;;;20.50;16.00;;;14.20;99.90;;;;;;5114579;27;20206;-69
2022/11/01 08:22:40;;;;;;;19.87;16.80;;;14.20;99.90;;;;;;5130363;27;20289;-68
2022/11/01 08:25:08;;;;;;;20.03;17.07;;;14.30;99.90;;;;;;5130315;27;20766;-68
2022/11/01 08:27:35;;;;;;;21.40;16.53;;;14.30;99.90;;;;;;5119281;27;20297;-68
2022/11/01 08:30:01;;;;;;;20.53;16.30;;;14.30;99.90;;;;;;5128327;27;20201;-68
2022/11/01 08:32:28;;;;;;;21.00;17.07;;;14.30;99.90;;;;;;5128028;27;20202;-68
2022/11/01 08:34:55;;;;;;;21.67;16.33;;;14.30;99.90;;;;;;5128437;27;20206;-69
2022/11/01 08:37:22;;;;;;;19.30;15.77;;;14.30;99.90;;;;;;5125730;27;20205;-68
2022/11/01 08:39:50;;;;;;;21.50;15.97;;;14.30;99.90;;;;;;5127032;27;20204;-69
2022/11/01 08:42:17;;;;;;;18.37;15.63;;;14.40;99.90;;;;;;5122411;27;20213;-70
2022/11/01 08:44:44;;;;;;;19.87;16.07;;;14.50;99.90;;;;;;5127302;27;20197;-69
2022/11/01 08:47:12;;;;;;;20.77;16.10;;;14.50;99.90;;;;;;5128687;27;20229;-69
2022/11/01 08:49:39;;;;;;;19.13;16.67;;;14.50;99.90;;;;;;5127614;27;20200;-69
2022/11/01 08:52:06;;;;;;;21.00;17.03;;;14.50;99.90;;;;;;5127914;27;20573;-68
2022/11/01 08:54:33;;;;;;;23.40;16.30;;;14.60;99.90;;;;;;5127350;27;20201;-68
2022/11/01 08:57:02;;;;;;;17.70;15.83;;;14.60;99.90;;;;;;5127861;27;20221;-68
2022/11/01 08:59:29;;;;;;;18.73;15.77;;;14.70;99.90;;;;;;5127927;27;20205;-69
2022/11/01 09:01:56;;;;;;;19.67;16.07;;;14.70;99.90;;;;;;5127221;27;20206;-69
2022/11/01 09:04:23;;;;;;;19.20;15.13;;;14.70;99.90;;;;;;5127547;27;20208;-68
2022/11/01 09:06:49;;;;;;;21.60;15.60;;;14.70;99.90;;;;;;5126903;27;20243;-68
2022/11/01 09:09:16;;;;;;;17.77;15.43;;;14.80;99.90;;;;;;5127294;27;20209;-68
2022/11/01 09:11:43;;;;;;;17.60;14.57;;;14.70;99.90;;;;;;5125752;27;20538;-68
2022/11/01 09:14:11;;;;;;;19.67;15.07;;;14.80;99.90;;;;;;5126848;27;20201;-69
2022/11/01 09:16:38;;;;;;;19.67;14.90;;;14.80;99.90;;;;;;5127258;27;20206;-68
2022/11/01 09:19:04;;;;;;;15.90;14.30;;;14.80;99.90;;;;;;5126676;27;20213;-68
2022/11/01 09:21:31;;;;;;;18.70;13.93;;;14.80;99.90;;;;;;5110468;27;20193;-69
2022/11/01 09:23:58;;;;;;;19.37;14.53;;;14.90;99.90;;;;;;5127527;27;20205;-69
2022/11/01 09:26:26;;;;;;;16.27;14.40;;;14.90;99.90;;;;;;5126935;27;20229;-68
2022/11/01 09:28:54;;;;;;;17.17;13.90;;;14.90;99.90;;;;;;5107419;28;20210;-68
2022/11/01 09:31:22;;;;;;;17.40;14.13;;;14.90;99.90;;;;;;5106682;28;20217;-68
2022/11/01 09:33:49;;;;;;;16.27;13.70;;;15.00;99.90;;;;;;5108883;27;20853;-68
2022/11/01 09:36:16;;;;;;;18.73;14.80;;;15.00;99.90;;;;;;5127196;27;20205;-68
2022/11/01 09:38:42;;;;;;;17.07;14.07;;;15.10;99.90;;;;;;5114520;27;20299;-68
2022/11/01 09:41:17;;;;;;;16.03;13.73;;;15.10;99.90;;;;;;5106637;28;20202;-68
2022/11/01 09:43:45;;;;;;;16.80;14.97;;;15.10;99.90;;;;;;5106595;28;20189;-68
2022/11/01 09:46:16;;;;;;;15.67;13.43;;;15.10;99.90;;;;;;5118253;27;20288;-68
2022/11/01 09:48:45;;;;;;;20.77;14.37;;;15.10;99.90;;;;;;5126731;27;20592;-68
2022/11/01 09:51:17;;;;;;;16.23;13.23;;;15.10;99.90;;;;;;5126597;27;20212;-68
2022/11/01 09:53:44;;;;;;;21.13;14.77;;;15.10;99.90;;;;;;5126658;27;20216;-68
2022/11/01 09:56:16;;;;;;;22.10;14.93;;;15.00;99.90;;;;;;5125477;27;20738;-68
2022/11/01 09:58:52;;;;;;;18.23;14.13;;;15.10;99.90;;;;;;5123958;27;20704;-68
2022/11/01 10:01:40;;;;;;;15.30;13.80;;;15.10;99.90;;;;;;5123957;27;20198;-68
2022/11/01 10:04:27;;;;;;;18.07;13.57;;;15.10;99.90;;;;;;5112052;27;20260;-68
2022/11/01 10:06:59;;;;;;;16.60;13.07;;;15.10;99.90;;;;;;5126996;27;20306;-68
2022/11/01 10:09:33;;;;;;;16.37;13.70;;;15.10;99.90;;;;;;5127102;27;20198;-68
2022/11/01 10:12:16;;;;;;;18.97;13.13;;;15.10;99.90;;;;;;5127287;27;20569;-68
2022/11/01 10:15:06;;;;;;;14.43;12.80;;;15.10;99.90;;;;;;5126388;27;20200;-68
2022/11/01 10:17:48;;;;;;;16.77;13.77;;;15.10;99.90;;;;;;5126216;27;20686;-68
2022/11/01 10:20:17;;;;;;;16.83;12.83;;;15.20;99.90;;;;;;5111138;27;20194;-68
2022/11/01 10:22:48;;;;;;;15.37;13.00;;;15.20;99.90;;;;;;5125991;27;20212;-68
2022/11/01 10:25:21;;;;;;;16.03;11.87;;;15.20;99.90;;;;;;5125564;27;20197;-68
2022/11/01 10:27:56;;;;;;;17.87;12.77;;;15.20;99.90;;;;;;5126221;27;20247;-68
2022/11/01 10:30:23;;;;;;;19.23;13.17;;;15.30;99.90;;;;;;5125986;27;20193;-68
2022/11/01 10:32:53;;;;;;;14.50;11.47;;;15.30;99.90;;;;;;5126377;27;20210;-68
2022/11/01 10:35:27;;;;;;;18.03;13.37;;;15.30;99.90;;;;;;5110777;27;20210;-68
2022/11/01 10:37:59;;;;;;;17.03;12.13;;;15.30;99.90;;;;;;5105626;28;20287;-68
2022/11/01 10:40:33;;;;;;;19.53;13.33;;;15.30;99.90;;;;;;5105714;28;20205;-68
2022/11/01 10:43:01;;;;;;;16.20;13.13;;;15.40;99.90;;;;;;5122047;28;20564;-68
2022/11/01 10:45:28;;;;;;;14.80;13.33;;;15.40;99.90;;;;;;5125802;27;20576;-68
2022/11/01 10:47:57;;;;;;;14.00;12.50;;;15.40;99.90;;;;;;5126441;27;20228;-68
2022/11/01 10:50:27;;;;;;;17.63;12.67;;;15.40;99.90;;;;;;5126227;27;20197;-68
2022/11/01 10:52:59;;;;;;;13.60;12.23;;;15.50;99.90;;;;;;5120980;27;20202;-68
2022/11/01 10:55:30;;;;;;;14.93;11.93;;;15.50;99.90;;;;;;5119794;28;20200;-68
2022/11/01 10:58:01;;;;;;;15.27;12.33;;;15.50;99.90;;;;;;5105701;28;20241;-68
2022/11/01 11:00:31;;;;;;;15.07;11.80;;;15.50;99.90;;;;;;5122391;28;20197;-68
2022/11/01 11:03:00;;;;;;;18.37;13.00;;;15.50;99.90;;;;;;5125565;27;20251;-68
2022/11/01 11:05:31;;;;;;;17.43;12.77;;;15.50;99.90;;;;;;5126230;27;20299;-68
2022/11/01 11:08:02;;;;;;;13.70;12.30;;;15.60;99.90;;;;;;5126161;27;20316;-68
2022/11/01 11:10:29;;;;;;;14.47;11.10;;;15.60;99.90;;;;;;5126022;27;20194;-68
2022/11/01 11:12:59;;;;;;;14.97;11.67;;;15.70;99.90;;;;;;5126117;27;20209;-68
2022/11/01 11:15:40;;;;;;;14.27;11.47;;;15.70;99.90;;;;;;5125361;27;20672;-68
2022/11/01 11:18:17;;;;;;;17.03;11.27;;;15.80;99.90;;;;;;5126102;27;20198;-68
2022/11/01 11:20:50;;;;;;;13.13;10.20;;;15.80;99.90;;;;;;5125737;27;21000;-68
2022/11/01 11:23:23;;;;;;;12.47;10.43;;;15.90;99.90;;;;;;5125615;27;20194;-68
2022/11/01 11:25:50;;;;;;;13.23;10.23;;;16.00;99.90;;;;;;5125996;27;20209;-68
2022/11/01 11:28:29;;;;;;;11.50;9.80;;;16.00;99.90;;;;;;5125530;27;20669;-68
2022/11/01 11:30:57;;;;;;;11.10;9.07;;;16.00;99.90;;;;;;5114802;27;20703;-68
2022/11/01 11:33:24;;;;;;;11.63;9.03;;;16.00;99.90;;;;;;5105671;28;20407;-68
2022/11/01 11:35:57;;;;;;;13.00;8.57;;;16.00;99.90;;;;;;5107408;28;20221;-68
2022/11/01 11:38:41;;;;;;;11.87;8.60;;;16.00;99.90;;;;;;5118339;27;20284;-68
2022/11/01 11:41:10;;;;;;;13.83;8.90;;;16.00;99.90;;;;;;5129840;27;20629;-68
2022/11/01 11:43:40;;;;;;;9.97;7.93;;;16.00;99.90;;;;;;5129352;27;20262;-68
2022/11/01 11:46:14;;;;;;;12.87;8.53;;;16.00;99.90;;;;;;5129003;27;20678;-68
2022/11/01 11:48:48;;;;;;;12.23;8.20;;;16.00;99.90;;;;;;5129156;27;20272;-68
2022/11/01 11:51:17;;;;;;;9.80;7.53;;;16.00;99.90;;;;;;5129184;27;20197;-68
2022/11/01 11:53:44;;;;;;;9.73;7.17;;;16.00;99.90;;;;;;5129259;27;20201;-68
2022/11/01 11:56:12;;;;;;;8.93;8.03;;;15.90;99.90;;;;;;5123382;27;20337;-68
2022/11/01 11:58:41;;;;;;;8.60;7.70;;;16.00;99.90;;;;;;5108989;28;20757;-68
2022/11/01 12:01:12;;;;;;;8.53;7.30;;;15.90;99.90;;;;;;5108784;28;20202;-70
2022/11/01 12:03:47;;;;;;;9.23;6.80;;;16.00;99.90;;;;;;5108643;28;20471;-68
2022/11/01 12:06:19;;;;;;;8.93;7.20;;;15.90;99.90;;;;;;5109013;28;20636;-68
2022/11/01 12:08:48;;;;;;;10.73;7.33;;;16.00;99.90;;;;;;5108365;28;20761;-68
2022/11/01 12:11:16;;;;;;;11.17;7.73;;;15.90;99.90;;;;;;5115374;27;20202;-68
2022/11/01 12:13:45;;;;;;;10.37;7.37;;;16.00;99.90;;;;;;5129825;27;20213;-68
2022/11/01 12:16:23;;;;;;;9.33;7.50;;;15.90;99.90;;;;;;5128934;27;20212;-68
2022/11/01 12:18:52;;;;;;;9.43;7.30;;;16.00;99.90;;;;;;5121486;27;20233;-68
2022/11/01 12:21:27;;;;;;;10.07;6.77;;;15.90;99.90;;;;;;5108810;28;20202;-68
2022/11/01 12:23:58;;;;;;;9.60;7.53;;;16.00;99.90;;;;;;5108122;28;20217;-68
2022/11/01 12:26:28;;;;;;;8.33;7.53;;;16.00;99.90;;;;;;5112228;27;20198;-68
2022/11/01 12:29:06;;;;;;;10.77;7.40;;;16.10;99.90;;;;;;5128875;27;20233;-68
2022/11/01 12:31:33;;;;;;;12.60;7.73;;;16.10;99.90;;;;;;5129096;27;20189;-68
2022/11/01 12:34:05;;;;;;;9.60;7.10;;;16.10;99.90;;;;;;5128731;27;20300;-68
2022/11/01 12:36:41;;;;;;;11.57;6.97;;;16.10;99.90;;;;;;5128527;27;20251;-68
2022/11/01 12:39:19;;;;;;;10.37;7.67;;;16.20;99.90;;;;;;5125715;27;20189;-68
2022/11/01 12:41:51;;;;;;;8.77;6.60;;;16.20;99.90;;;;;;5127027;27;20193;-68
2022/11/01 12:44:32;;;;;;;8.33;6.93;;;16.30;99.90;;;;;;5127948;27;20544;-68
2022/11/01 12:47:05;;;;;;;9.70;7.30;;;16.30;99.90;;;;;;5126232;27;20621;-67